Time;durP1;ratioP1;P1;durP2;ratioP2;P2;SDS_P1;SDS_P2;PMS_P1;PMS_P2;Temp;Humidity;BMP_temperature;BMP_pressure;BME280_temperature;BME280_humidity;BME280_pressure;Samples;Min_cycle;Max_cycle;Signal;HPM_P1;HPM_P2
2023/01/27 00:00:17;;;;;;;15.82;8.27;;;;;;;;;;5034470;28;20232;-83
2023/01/27 00:02:45;;;;;;;15.85;9.05;;;0.60;1.00;;;;;;5031632;28;20254;-82
2023/01/27 00:05:15;;;;;;;14.63;8.50;;;0.70;1.00;;;;;;5029761;28;20201;-83
2023/01/27 00:07:45;;;;;;;12.55;8.70;;;0.60;1.00;;;;;;5035483;28;20288;-82
2023/01/27 00:10:15;;;;;;;14.15;8.18;;;0.50;1.00;;;;;;5032833;28;20220;-82
2023/01/27 00:15:27;;;;;;;17.80;9.30;;;0.80;1.00;;;;;;5032550;28;20184;-82
2023/01/27 00:17:54;;;;;;;14.90;8.88;;;;;;;;;;5033882;28;20232;-83
2023/01/27 00:24:34;;;;;;;16.55;8.75;;;1.00;1.00;;;;;;5037852;28;20201;-83
2023/01/27 00:26:05;;;;;;;15.75;8.55;;;0.70;1.00;;;;;;5038741;28;20203;-83
2023/01/27 00:28:32;;;;;;;17.02;9.00;;;0.90;1.00;;;;;;5034724;28;20288;-83
2023/01/27 00:30:59;;;;;;;13.40;8.70;;;;;;;;;;5035410;28;20205;-84
2023/01/27 00:33:26;;;;;;;17.77;9.57;;;0.90;1.00;;;;;;5029090;28;20640;-84
2023/01/27 00:35:58;;;;;;;17.90;9.43;;;0.90;1.00;;;;;;5025837;28;20216;-84
2023/01/27 00:38:27;;;;;;;17.00;10.02;;;0.70;1.00;;;;;;5024790;28;20236;-84
2023/01/27 00:43:38;;;;;;;14.18;7.63;;;0.90;1.00;;;;;;5025524;28;20638;-84
2023/01/27 00:46:05;;;;;;;14.30;9.45;;;0.50;1.00;;;;;;5024710;28;20291;-84
2023/01/27 00:48:32;;;;;;;15.77;9.18;;;0.60;1.00;;;;;;5024909;28;20228;-84
2023/01/27 00:50:59;;;;;;;12.75;8.25;;;0.80;1.00;;;;;;5032420;28;20264;-84
2023/01/27 00:53:27;;;;;;;12.77;8.02;;;0.70;1.00;;;;;;5033280;28;20235;-83
2023/01/27 00:55:54;;;;;;;18.85;9.70;;;;;;;;;;5034251;28;20268;-83
2023/01/27 00:58:21;;;;;;;17.58;8.55;;;1.10;1.00;;;;;;5033293;28;20239;-81
2023/01/27 01:00:49;;;;;;;12.85;8.93;;;;;;;;;;5033395;28;20235;-82
2023/01/27 01:03:16;;;;;;;16.70;9.00;;;0.90;1.00;;;;;;5032882;28;20212;-83
2023/01/27 01:05:43;;;;;;;13.35;9.18;;;1.10;1.00;;;;;;5033773;28;20208;-83
2023/01/27 01:08:09;;;;;;;16.40;10.25;;;1.00;1.00;;;;;;5028764;28;20722;-83
2023/01/27 01:10:39;;;;;;;18.52;10.13;;;;;;;;;;5024218;28;20193;-83
2023/01/27 01:13:09;;;;;;;19.20;9.05;;;0.80;1.00;;;;;;5023731;28;20208;-84
2023/01/27 01:15:36;;;;;;;19.63;10.40;;;;;;;;;;5023436;28;20686;-84
2023/01/27 01:18:03;;;;;;;19.02;10.02;;;0.70;1.00;;;;;;5025390;28;20259;-84
2023/01/27 01:20:30;;;;;;;18.73;11.05;;;0.50;1.00;;;;;;5027336;28;20197;-84
2023/01/27 01:22:57;;;;;;;18.67;11.00;;;0.70;1.00;;;;;;5025614;28;20257;-84
2023/01/27 01:25:24;;;;;;;16.30;9.07;;;0.40;1.00;;;;;;5024641;28;20204;-83
2023/01/27 01:27:52;;;;;;;20.13;9.77;;;0.70;1.00;;;;;;5024880;28;20225;-83
2023/01/27 01:30:20;;;;;;;14.75;8.98;;;0.70;1.00;;;;;;5024984;28;20239;-83
2023/01/27 01:32:47;;;;;;;19.30;10.05;;;;;;;;;;5023734;28;20207;-83
2023/01/27 01:35:14;;;;;;;24.30;10.00;;;1.00;1.00;;;;;;5023730;28;20207;-84
2023/01/27 01:37:41;;;;;;;19.30;9.75;;;;;;;;;;5022089;28;20263;-83
2023/01/27 01:40:12;;;;;;;19.35;11.13;;;0.70;1.00;;;;;;5023046;28;20240;-84
2023/01/27 01:42:58;;;;;;;19.92;9.70;;;0.70;1.00;;;;;;5022942;28;20217;-84
2023/01/27 01:45:48;;;;;;;22.00;12.60;;;1.20;1.00;;;;;;5024192;28;20275;-83
2023/01/27 01:48:21;;;;;;;21.25;9.07;;;0.70;1.00;;;;;;5023519;28;20263;-83
2023/01/27 01:50:52;;;;;;;20.17;10.65;;;0.70;1.00;;;;;;5025463;28;20226;-83
2023/01/27 01:53:21;;;;;;;19.55;11.55;;;0.60;1.00;;;;;;5026965;28;20486;-83
2023/01/27 01:55:49;;;;;;;22.83;11.75;;;0.70;1.00;;;;;;5025276;28;20197;-81
2023/01/27 01:58:19;;;;;;;22.23;10.32;;;;;;;;;;5023646;28;20229;-83
2023/01/27 02:00:47;;;;;;;21.92;11.30;;;0.50;1.00;;;;;;5023283;28;20189;-84
2023/01/27 02:03:14;;;;;;;20.73;10.35;;;0.80;1.00;;;;;;5022492;28;20299;-84
2023/01/27 02:05:44;;;;;;;25.85;11.82;;;0.80;1.00;;;;;;5022569;28;20255;-84
2023/01/27 02:08:16;;;;;;;23.48;9.48;;;0.90;1.00;;;;;;5022480;28;20220;-84
2023/01/27 02:10:43;;;;;;;13.15;9.65;;;0.90;1.00;;;;;;5025864;28;20221;-83
2023/01/27 02:13:10;;;;;;;20.73;10.50;;;0.70;1.00;;;;;;5034321;28;20248;-81
2023/01/27 02:15:39;;;;;;;20.05;10.25;;;1.00;1.00;;;;;;5036448;28;20248;-81
2023/01/27 02:18:07;;;;;;;21.13;9.77;;;0.90;1.00;;;;;;5033415;28;20244;-83
2023/01/27 02:20:40;;;;;;;17.67;10.27;;;0.90;1.00;;;;;;5028247;28;20223;-83
2023/01/27 02:23:16;;;;;;;18.25;10.30;;;0.60;1.00;;;;;;5034451;28;20220;-82
2023/01/27 02:25:48;;;;;;;18.48;10.00;;;0.50;1.00;;;;;;5032705;28;20219;-83
2023/01/27 02:28:15;;;;;;;16.30;8.50;;;0.50;1.00;;;;;;5029281;28;20315;-83
2023/01/27 02:30:42;;;;;;;19.90;10.55;;;0.50;1.00;;;;;;5025996;28;20240;-84
2023/01/27 02:33:11;;;;;;;16.50;9.80;;;0.80;1.00;;;;;;5025086;28;20656;-84
2023/01/27 02:35:44;;;;;;;15.35;9.93;;;0.60;1.00;;;;;;5023867;28;20276;-84
2023/01/27 02:38:12;;;;;;;15.23;9.32;;;0.90;1.00;;;;;;5023299;28;20236;-83
2023/01/27 02:40:40;;;;;;;21.73;11.18;;;1.70;1.00;;;;;;5022555;28;20725;-83
2023/01/27 02:43:08;;;;;;;17.50;9.20;;;1.10;1.00;;;;;;5022303;28;20220;-83
2023/01/27 02:45:35;;;;;;;21.42;9.95;;;1.00;1.00;;;;;;5022206;28;20232;-83
2023/01/27 02:48:02;;;;;;;17.95;9.30;;;0.80;1.00;;;;;;5022882;28;20220;-83
2023/01/27 02:50:29;;;;;;;13.88;9.63;;;1.20;1.00;;;;;;5032186;28;20227;-82
2023/01/27 02:52:56;;;;;;;14.73;8.80;;;;;;;;;;5035523;28;20224;-83
2023/01/27 02:55:23;;;;;;;19.52;11.63;;;0.70;1.00;;;;;;5037306;28;20219;-83
2023/01/27 02:57:50;;;;;;;14.10;9.20;;;0.70;1.00;;;;;;5031327;28;20250;-81
2023/01/27 03:00:19;;;;;;;13.98;8.50;;;1.20;1.00;;;;;;5032991;28;20268;-83
2023/01/27 03:02:46;;;;;;;14.77;7.38;;;0.60;1.00;;;;;;5026480;28;20220;-84
2023/01/27 03:05:14;;;;;;;13.77;8.68;;;;;;;;;;5023284;28;20236;-84
2023/01/27 03:07:41;;;;;;;19.83;9.48;;;1.40;1.00;;;;;;5022624;28;20252;-85
2023/01/27 03:10:09;;;;;;;13.43;8.85;;;1.20;1.00;;;;;;5022689;28;20263;-83
2023/01/27 03:12:36;;;;;;;11.98;8.43;;;1.20;1.00;;;;;;5022777;28;20272;-83
2023/01/27 03:20:33;;;;;;;15.43;8.40;;;1.00;1.00;;;;;;5026920;28;20196;-84
2023/01/27 03:22:59;;;;;;;16.48;8.95;;;1.20;1.00;;;;;;5026895;28;20291;-83
2023/01/27 03:25:26;;;;;;;14.27;8.73;;;0.70;1.00;;;;;;5026913;28;20236;-82
2023/01/27 03:27:53;;;;;;;16.25;9.10;;;;;;;;;;5026600;28;20222;-83
2023/01/27 03:30:21;;;;;;;17.95;9.63;;;0.90;1.00;;;;;;5026488;28;20287;-84
2023/01/27 03:32:49;;;;;;;19.33;9.20;;;0.90;99.90;;;;;;5027922;28;20204;-85
2023/01/27 03:35:17;;;;;;;13.52;8.48;;;0.90;99.90;;;;;;5029652;28;20216;-85
2023/01/27 03:48:44;;;;;;;11.73;7.50;;;1.20;1.00;;;;;;5031420;28;20222;-83
2023/01/27 03:51:11;;;;;;;11.30;7.10;;;0.60;99.90;;;;;;5027230;28;20239;-84
2023/01/27 03:53:38;;;;;;;13.25;8.90;;;1.00;1.00;;;;;;5033559;28;20268;-82
2023/01/27 03:56:06;;;;;;;11.93;8.60;;;1.10;1.00;;;;;;5031661;28;20208;-84
2023/01/27 03:58:35;;;;;;;14.05;7.97;;;1.00;1.00;;;;;;5030812;28;20250;-82
2023/01/27 04:01:04;;;;;;;19.50;8.82;;;2.20;1.00;;;;;;5027773;28;20291;-84
2023/01/27 04:09:05;;;;;;;14.75;8.43;;;1.70;99.90;;;;;;5025305;28;20208;-83
2023/01/27 04:14:17;;;;;;;19.15;10.05;;;;;;;;;;5025661;28;20244;-82
2023/01/27 04:16:44;;;;;;;12.77;8.25;;;;;;;;;;5030406;28;20255;-83
2023/01/27 04:19:12;;;;;;;15.10;7.95;;;1.60;1.00;;;;;;5029661;28;20204;-82
2023/01/27 04:21:41;;;;;;;15.52;8.27;;;1.30;1.00;;;;;;5028006;28;20211;-82
2023/01/27 04:24:16;;;;;;;13.63;8.60;;;1.60;1.00;;;;;;5027794;28;20727;-83
2023/01/27 04:26:44;;;;;;;20.13;9.65;;;1.60;1.00;;;;;;5027149;28;20235;-84
2023/01/27 04:29:13;;;;;;;18.15;9.00;;;2.10;1.00;;;;;;5028113;28;20228;-84
2023/01/27 04:31:40;;;;;;;14.43;7.88;;;1.10;99.90;;;;;;5027375;28;20569;-82
2023/01/27 04:34:06;;;;;;;19.00;8.95;;;1.20;1.00;;;;;;5033375;28;20208;-80
2023/01/27 04:36:33;;;;;;;15.60;8.43;;;1.70;99.90;;;;;;5034698;28;20244;-82
2023/01/27 04:39:02;;;;;;;20.35;9.77;;;1.40;1.00;;;;;;5034726;28;20227;-80
2023/01/27 04:41:29;;;;;;;19.33;9.68;;;1.10;99.90;;;;;;5033878;28;20220;-83
2023/01/27 04:43:55;;;;;;;16.05;8.73;;;1.50;1.00;;;;;;5034558;28;20220;-84
2023/01/27 04:46:22;;;;;;;19.52;10.15;;;1.40;1.00;;;;;;5035030;28;20264;-84
2023/01/27 04:48:49;;;;;;;17.88;9.38;;;;;;;;;;5031682;28;20204;-83
2023/01/27 04:51:16;;;;;;;12.98;7.97;;;1.50;1.00;;;;;;5029747;28;20231;-84
2023/01/27 04:53:43;;;;;;;11.02;8.68;;;1.30;1.00;;;;;;5028830;28;20206;-84
2023/01/27 04:56:23;;;;;;;14.30;8.60;;;1.20;1.00;;;;;;5029453;28;20208;-84
2023/01/27 04:58:50;;;;;;;17.45;8.45;;;1.30;1.00;;;;;;5032695;28;20200;-84
2023/01/27 05:01:17;;;;;;;18.95;9.35;;;1.30;1.00;;;;;;5029541;28;20260;-82
2023/01/27 05:03:44;;;;;;;18.67;8.75;;;;;;;;;;5035482;28;20228;-81
2023/01/27 05:06:12;;;;;;;11.27;8.18;;;1.50;1.00;;;;;;5035040;28;20268;-81
2023/01/27 05:08:40;;;;;;;11.77;7.63;;;;;;;;;;5029726;28;20283;-85
2023/01/27 05:11:07;;;;;;;15.90;9.30;;;;;;;;;;5024399;28;20296;-84
2023/01/27 05:13:35;;;;;;;13.85;7.50;;;1.50;1.00;;;;;;5023958;28;20251;-85
2023/01/27 05:16:11;;;;;;;13.35;7.65;;;1.60;1.00;;;;;;5024508;28;20239;-84
2023/01/27 05:18:39;;;;;;;14.55;8.65;;;0.90;1.00;;;;;;5024253;28;20275;-84
2023/01/27 05:21:07;;;;;;;15.40;7.72;;;1.30;1.00;;;;;;5025001;28;20259;-84
2023/01/27 05:23:37;;;;;;;15.07;7.55;;;1.50;1.00;;;;;;5023868;28;20574;-84
2023/01/27 05:26:12;;;;;;;11.93;6.95;;;1.40;1.00;;;;;;5023321;28;20215;-84
2023/01/27 05:28:41;;;;;;;12.52;7.75;;;1.10;1.00;;;;;;5023243;28;20208;-84
2023/01/27 05:31:11;;;;;;;11.15;7.20;;;1.30;1.00;;;;;;5024291;28;20211;-83
2023/01/27 05:33:38;;;;;;;11.30;5.90;;;1.60;1.00;;;;;;5025043;28;20263;-82
2023/01/27 05:36:07;;;;;;;9.77;6.85;;;1.50;1.00;;;;;;5024995;28;20204;-85
2023/01/27 05:38:34;;;;;;;9.45;6.32;;;1.20;1.00;;;;;;5048606;22;20243;-77
2023/01/27 05:41:03;;;;;;;11.65;6.85;;;1.10;1.00;;;;;;5030585;28;20723;-78
2023/01/27 05:43:31;;;;;;;7.68;5.68;;;1.50;1.00;;;;;;5016208;28;20252;-79
2023/01/27 05:46:07;;;;;;;11.65;6.63;;;1.30;1.00;;;;;;5016376;28;20667;-79
2023/01/27 05:48:35;;;;;;;11.85;6.82;;;1.20;1.00;;;;;;5016133;28;20671;-78
2023/01/27 05:51:02;;;;;;;11.10;6.10;;;;;;;;;;5019272;28;20450;-77
2023/01/27 05:53:29;;;;;;;8.68;6.13;;;1.20;1.00;;;;;;5023487;28;20262;-79
2023/01/27 05:55:56;;;;;;;7.57;4.80;;;1.40;1.00;;;;;;5026676;28;20205;-78
2023/01/27 05:58:23;;;;;;;9.02;6.13;;;1.60;1.00;;;;;;5027856;28;20224;-79
2023/01/27 06:00:50;;;;;;;8.15;5.15;;;;;;;;;;5027346;28;20200;-78
2023/01/27 06:03:19;;;;;;;9.85;5.50;;;1.20;1.00;;;;;;5027014;28;20222;-78
2023/01/27 06:05:50;;;;;;;9.23;5.18;;;1.80;1.00;;;;;;5029453;28;20341;-78
2023/01/27 06:08:17;;;;;;;9.85;5.15;;;1.80;1.00;;;;;;5031494;28;20228;-78
2023/01/27 06:10:44;;;;;;;10.25;5.65;;;1.60;1.00;;;;;;5029993;28;20215;-78
2023/01/27 06:13:11;;;;;;;8.23;5.38;;;1.90;1.00;;;;;;5029485;28;20236;-78
2023/01/27 06:15:40;;;;;;;9.40;5.40;;;1.90;1.00;;;;;;5026750;28;20207;-78
2023/01/27 06:18:07;;;;;;;20.73;10.98;;;1.60;1.00;;;;;;5026601;28;20227;-78
2023/01/27 06:20:35;;;;;;;15.10;7.80;;;1.90;1.00;;;;;;5027381;28;20276;-78
2023/01/27 06:23:03;;;;;;;10.13;5.82;;;1.60;1.00;;;;;;5026122;28;20220;-78
2023/01/27 06:25:30;;;;;;;12.70;8.20;;;0.80;1.00;;;;;;5026215;28;20282;-78
2023/01/27 06:27:57;;;;;;;15.13;7.45;;;1.40;1.00;;;;;;5029716;28;20248;-77
2023/01/27 06:30:24;;;;;;;13.60;6.88;;;1.90;1.00;;;;;;5028974;28;20208;-77
2023/01/27 06:32:51;;;;;;;7.50;6.00;;;;;;;;;;5033044;28;20269;-77
2023/01/27 06:35:18;;;;;;;9.48;5.38;;;1.40;1.00;;;;;;5036188;28;20224;-77
2023/01/27 06:37:48;;;;;;;8.63;5.65;;;;;;;;;;5025792;28;20267;-78
2023/01/27 06:40:16;;;;;;;10.00;5.28;;;1.60;1.00;;;;;;5027757;28;20200;-78
2023/01/27 06:42:43;;;;;;;8.23;4.95;;;1.60;1.00;;;;;;5020218;28;20260;-79
2023/01/27 06:45:11;;;;;;;7.07;4.20;;;1.40;1.00;;;;;;5015169;28;20208;-79
2023/01/27 06:47:38;;;;;;;8.90;4.50;;;1.60;1.00;;;;;;5016871;28;20228;-78
2023/01/27 06:50:06;;;;;;;9.50;5.20;;;2.00;1.00;;;;;;5019657;28;20211;-78
2023/01/27 06:52:33;;;;;;;8.05;5.03;;;1.90;1.00;;;;;;5019047;28;20231;-78
2023/01/27 06:55:01;;;;;;;6.03;4.80;;;1.90;1.00;;;;;;5018740;28;20227;-78
2023/01/27 06:57:28;;;;;;;9.63;6.00;;;2.40;1.00;;;;;;5017803;28;20220;-78
2023/01/27 06:59:55;;;;;;;7.88;5.35;;;1.80;1.00;;;;;;5018061;28;20210;-77
2023/01/27 07:02:22;;;;;;;7.15;4.45;;;2.00;1.00;;;;;;5018122;28;20325;-78
2023/01/27 07:04:49;;;;;;;9.32;5.78;;;2.10;1.00;;;;;;5017081;28;20212;-77
2023/01/27 07:07:16;;;;;;;9.15;5.90;;;1.50;1.00;;;;;;5015744;28;20311;-77
2023/01/27 07:09:43;;;;;;;10.52;5.35;;;1.80;1.00;;;;;;5015804;28;20211;-79
2023/01/27 07:12:11;;;;;;;13.55;5.85;;;2.10;1.00;;;;;;5014974;28;20209;-78
2023/01/27 07:14:38;;;;;;;5.93;4.95;;;1.90;1.00;;;;;;5014555;28;20291;-78
2023/01/27 07:17:04;;;;;;;9.10;6.10;;;1.90;1.00;;;;;;5014717;28;20311;-78
2023/01/27 07:19:32;;;;;;;10.90;6.07;;;;;;;;;;5014491;28;20208;-78
2023/01/27 07:21:59;;;;;;;13.20;6.75;;;1.80;1.00;;;;;;5015067;28;20551;-80
2023/01/27 07:24:26;;;;;;;16.48;6.80;;;1.70;1.00;;;;;;5031252;28;20229;-79
2023/01/27 07:26:55;;;;;;;11.35;6.18;;;1.60;1.00;;;;;;5031519;28;20782;-79
2023/01/27 07:29:24;;;;;;;11.15;6.97;;;1.80;1.00;;;;;;5029005;28;20204;-79
2023/01/27 07:31:50;;;;;;;9.02;6.70;;;1.90;1.00;;;;;;5027859;28;20291;-79
2023/01/27 07:34:17;;;;;;;8.32;6.10;;;1.70;1.00;;;;;;5025723;28;20216;-80
2023/01/27 07:36:44;;;;;;;12.43;7.65;;;1.80;6.30;;;;;;5018121;28;20259;-80
2023/01/27 07:39:11;;;;;;;13.98;7.18;;;1.60;1.00;;;;;;5018201;28;20196;-80
2023/01/27 07:41:37;;;;;;;15.50;7.82;;;2.10;1.00;;;;;;5018059;28;20295;-80
2023/01/27 07:44:04;;;;;;;10.18;6.68;;;2.20;18.00;;;;;;5022091;28;20224;-79
2023/01/27 07:46:33;;;;;;;12.00;6.93;;;2.00;1.00;;;;;;5024132;28;20273;-79
2023/01/27 07:48:59;;;;;;;18.55;7.30;;;2.30;24.60;;;;;;5018392;28;20276;-80
2023/01/27 07:51:26;;;;;;;20.75;8.85;;;2.00;30.80;;;;;;5017903;28;20207;-80
2023/01/27 07:53:53;;;;;;;11.95;7.90;;;2.20;1.00;;;;;;5017330;28;20207;-80
2023/01/27 07:56:20;;;;;;;17.00;7.60;;;1.80;3.30;;;;;;5017522;28;20212;-79
2023/01/27 07:58:47;;;;;;;14.25;7.38;;;;;;;;;;5017018;28;20229;-80
2023/01/27 08:01:14;;;;;;;16.50;8.25;;;2.10;41.60;;;;;;5019986;28;20311;-79
2023/01/27 08:03:42;;;;;;;13.57;8.70;;;2.10;37.30;;;;;;5032790;28;20251;-78
2023/01/27 08:06:11;;;;;;;14.60;8.60;;;2.30;23.50;;;;;;5037272;28;20276;-79
2023/01/27 08:08:41;;;;;;;15.63;9.35;;;;;;;;;;5037993;28;20229;-79
2023/01/27 08:11:11;;;;;;;19.77;10.88;;;2.20;1.00;;;;;;5028814;28;20204;-80
2023/01/27 08:13:38;;;;;;;17.50;8.75;;;2.40;30.40;;;;;;5030656;28;20236;-79
2023/01/27 08:16:07;;;;;;;14.27;8.30;;;2.00;28.90;;;;;;5018601;28;20259;-80
2023/01/27 08:18:34;;;;;;;11.73;8.40;;;2.20;1.00;;;;;;5019982;28;20228;-80
2023/01/27 08:21:05;;;;;;;14.65;8.55;;;2.50;99.90;;;;;;5023993;28;20204;-80
2023/01/27 08:23:32;;;;;;;17.35;9.10;;;2.60;19.10;;;;;;5018829;28;20224;-80
2023/01/27 08:26:01;;;;;;;20.77;8.82;;;2.30;53.10;;;;;;5019301;28;20220;-80
2023/01/27 08:28:30;;;;;;;11.82;7.57;;;2.60;99.90;;;;;;5018582;28;20228;-80
2023/01/27 08:31:04;;;;;;;13.20;8.63;;;2.50;1.00;;;;;;5020978;28;20207;-80
2023/01/27 08:33:31;;;;;;;12.00;9.18;;;;;;;;;;5021202;28;20185;-80
2023/01/27 08:36:04;;;;;;;12.32;7.60;;;2.60;76.00;;;;;;5021310;28;20204;-80
2023/01/27 08:38:33;;;;;;;13.75;7.75;;;;;;;;;;5028088;28;20242;-80
2023/01/27 08:41:04;;;;;;;12.65;8.10;;;2.90;2.00;;;;;;5029586;28;20208;-80
2023/01/27 08:43:31;;;;;;;12.27;8.20;;;2.30;99.90;;;;;;5027081;28;20308;-80
2023/01/27 08:45:59;;;;;;;11.05;7.85;;;2.60;99.90;;;;;;5021714;28;20200;-80
2023/01/27 08:48:29;;;;;;;12.90;8.82;;;2.40;1.00;;;;;;5023205;28;20288;-79
2023/01/27 08:50:57;;;;;;;12.20;8.30;;;2.40;99.90;;;;;;5024219;28;20599;-79
2023/01/27 08:53:26;;;;;;;11.90;8.15;;;2.60;94.00;;;;;;5021874;28;20272;-79
2023/01/27 08:55:57;;;;;;;10.98;8.18;;;3.40;95.30;;;;;;5037284;28;20251;-79
2023/01/27 08:58:24;;;;;;;18.00;9.95;;;2.90;90.80;;;;;;5024679;28;20230;-80
2023/01/27 09:00:51;;;;;;;10.82;7.97;;;;;;;;;;5024034;28;20200;-80
2023/01/27 09:03:18;;;;;;;11.30;8.80;;;;;;;;;;5030710;28;20251;-80
2023/01/27 09:05:46;;;;;;;12.13;9.82;;;2.80;99.90;;;;;;5029905;28;20264;-80
2023/01/27 09:08:14;;;;;;;10.75;7.40;;;2.70;99.90;;;;;;5020727;28;20220;-81
2023/01/27 09:10:43;;;;;;;13.32;10.05;;;2.60;99.90;;;;;;5020667;28;20299;-80
2023/01/27 09:13:10;;;;;;;11.35;9.10;;;2.60;99.90;;;;;;5024814;28;20209;-79
2023/01/27 09:15:37;;;;;;;11.73;8.15;;;2.90;18.60;;;;;;5027929;28;20197;-79
2023/01/27 09:18:05;;;;;;;11.68;7.78;;;2.60;99.90;;;;;;5029654;28;20247;-80
2023/01/27 09:20:33;;;;;;;12.70;8.40;;;2.50;99.90;;;;;;5027649;28;20296;-79
2023/01/27 09:23:00;;;;;;;16.30;10.82;;;3.00;99.90;;;;;;5027672;28;20272;-79
2023/01/27 09:25:26;;;;;;;15.07;8.52;;;3.60;53.30;;;;;;5024808;28;20188;-79
2023/01/27 09:27:56;;;;;;;11.95;8.18;;;3.30;99.90;;;;;;5022853;28;20790;-79
2023/01/27 09:30:24;;;;;;;11.20;8.30;;;2.80;99.90;;;;;;5025428;28;20248;-78
2023/01/27 09:32:51;;;;;;;11.68;7.68;;;3.00;99.90;;;;;;5027558;28;20259;-79
2023/01/27 09:35:18;;;;;;;17.88;8.45;;;;;;;;;;5027335;28;20192;-78
2023/01/27 09:37:50;;;;;;;9.18;5.80;;;3.10;99.90;;;;;;5027928;28;20292;-78
2023/01/27 09:40:29;;;;;;;11.95;8.05;;;3.30;99.90;;;;;;5023352;28;20622;-79
2023/01/27 09:43:22;;;;;;;10.35;7.78;;;3.20;99.90;;;;;;5019010;28;20219;-79
2023/01/27 09:46:17;;;;;;;8.57;7.80;;;3.20;43.40;;;;;;5018230;28;20201;-79
2023/01/27 09:49:03;;;;;;;14.20;7.30;;;3.00;99.90;;;;;;5018059;28;20733;-80
2023/01/27 09:51:39;;;;;;;10.25;7.20;;;3.40;55.40;;;;;;5037410;28;20248;-78
2023/01/27 09:54:36;;;;;;;7.15;6.40;;;3.20;99.90;;;;;;5031606;28;20243;-78
2023/01/27 09:57:15;;;;;;;10.18;7.28;;;3.30;99.90;;;;;;5019904;28;20749;-80
2023/01/27 10:00:00;;;;;;;6.97;6.28;;;3.50;99.90;;;;;;5018234;28;20351;-80
2023/01/27 10:02:41;;;;;;;8.05;7.25;;;3.30;99.90;;;;;;5017457;28;20189;-79
2023/01/27 10:05:33;;;;;;;8.68;6.55;;;3.20;99.90;;;;;;5019807;28;20299;-79
2023/01/27 10:08:33;;;;;;;9.93;6.55;;;3.60;70.80;;;;;;5019859;28;20232;-78
2023/01/27 10:11:12;;;;;;;7.15;6.35;;;3.00;99.90;;;;;;5036054;28;20188;-78
2023/01/27 10:13:49;;;;;;;9.10;7.35;;;3.10;99.90;;;;;;5037732;28;20204;-78
2023/01/27 10:16:32;;;;;;;7.63;6.93;;;3.60;99.90;;;;;;5032351;28;20293;-78
2023/01/27 10:19:11;;;;;;;9.57;8.50;;;3.30;51.60;;;;;;5024363;28;20195;-79
2023/01/27 10:21:50;;;;;;;11.90;8.70;;;3.70;99.90;;;;;;5018586;28;20620;-80
2023/01/27 10:24:27;;;;;;;9.82;8.35;;;2.90;99.90;;;;;;5021412;28;20204;-79
2023/01/27 10:26:59;;;;;;;9.50;7.25;;;3.30;56.00;;;;;;5023309;28;20224;-78
2023/01/27 10:29:30;;;;;;;7.30;6.18;;;3.60;99.90;;;;;;5025499;28;20260;-79
2023/01/27 10:32:05;;;;;;;10.60;7.70;;;3.50;99.90;;;;;;5024770;28;20239;-80
2023/01/27 10:34:36;;;;;;;5.65;5.05;;;3.00;99.90;;;;;;5018347;28;20220;-79
2023/01/27 10:37:18;;;;;;;7.30;5.78;;;3.60;99.90;;;;;;5018154;28;20235;-79
2023/01/27 10:39:53;;;;;;;6.07;5.25;;;3.40;99.90;;;;;;5023310;28;20249;-80
2023/01/27 10:42:28;;;;;;;6.05;5.47;;;3.70;62.40;;;;;;5025152;28;20567;-79
2023/01/27 10:45:10;;;;;;;8.38;6.05;;;3.50;99.90;;;;;;5025918;28;20232;-79
2023/01/27 10:47:51;;;;;;;6.35;5.13;;;3.40;17.60;;;;;;5019775;28;20224;-80
2023/01/27 10:50:22;;;;;;;6.32;5.82;;;3.70;99.90;;;;;;5016712;28;20677;-79
2023/01/27 10:52:58;;;;;;;6.55;5.72;;;3.40;99.90;;;;;;5017401;28;20196;-80
2023/01/27 10:55:33;;;;;;;8.48;5.68;;;3.40;94.20;;;;;;5017865;28;20195;-79
2023/01/27 10:58:05;;;;;;;6.22;5.63;;;3.20;85.90;;;;;;5017893;28;20318;-79
2023/01/27 11:00:35;;;;;;;5.45;5.03;;;3.20;98.60;;;;;;5018282;28;20197;-80
2023/01/27 11:03:10;;;;;;;5.20;4.70;;;3.40;78.10;;;;;;5030467;28;20196;-80
2023/01/27 11:05:39;;;;;;;6.05;5.55;;;3.30;82.80;;;;;;5025873;28;20294;-80
2023/01/27 11:08:11;;;;;;;5.75;5.25;;;3.50;1.00;;;;;;5025136;28;20227;-79
2023/01/27 11:11:42;;;;;;;12.35;6.03;;;3.70;21.30;;;;;;5018283;28;20560;-80
2023/01/27 11:13:31;;;;;;;5.70;5.15;;;3.60;1.00;;;;;;5018520;28;20205;-81
2023/01/27 11:15:58;;;;;;;6.63;5.25;;;2.70;2.00;;;;;;5018794;28;20287;-81
2023/01/27 11:18:28;;;;;;;5.57;4.90;;;3.70;1.00;;;;;;5023905;28;20228;-80
2023/01/27 11:20:59;;;;;;;7.15;5.13;;;3.40;56.30;;;;;;5016662;28;20712;-80
2023/01/27 11:23:29;;;;;;;5.78;4.88;;;3.60;97.80;;;;;;5018206;28;20208;-79
2023/01/27 11:26:02;;;;;;;6.28;4.32;;;3.70;24.30;;;;;;5022705;28;20233;-79
2023/01/27 11:28:37;;;;;;;4.22;3.80;;;3.70;1.00;;;;;;5017017;28;20220;-80
2023/01/27 11:31:13;;;;;;;3.97;3.60;;;3.90;21.60;;;;;;5016724;28;20192;-79
2023/01/27 11:33:56;;;;;;;4.05;3.72;;;3.50;1.00;;;;;;5017035;28;20199;-80
2023/01/27 11:36:24;;;;;;;4.20;3.38;;;;;;;;;;5023173;28;20295;-80
2023/01/27 11:38:51;;;;;;;4.75;3.58;;;;;;;;;;5049915;22;20243;-83
2023/01/27 11:41:18;;;;;;;3.85;3.60;;;3.70;1.00;;;;;;5029135;28;20254;-84
2023/01/27 11:43:48;;;;;;;5.63;2.55;;;4.00;1.00;;;;;;5027249;28;20255;-84
2023/01/27 11:46:19;;;;;;;5.15;3.90;;;3.70;1.00;;;;;;5028873;28;20228;-84
2023/01/27 11:48:50;;;;;;;5.10;3.75;;;3.80;1.00;;;;;;5028636;28;20270;-83
2023/01/27 11:51:20;;;;;;;6.05;3.90;;;4.10;1.00;;;;;;5026580;28;20257;-84
2023/01/27 11:53:51;;;;;;;3.78;3.50;;;3.60;1.00;;;;;;5028623;28;20269;-86
2023/01/27 11:56:19;;;;;;;4.32;3.92;;;3.50;1.00;;;;;;5028228;28;20212;-83
2023/01/27 11:58:52;;;;;;;5.93;4.13;;;3.80;1.00;;;;;;5028022;28;20315;-86
2023/01/27 12:01:23;;;;;;;4.50;3.97;;;3.60;1.00;;;;;;5026102;28;20196;-83
2023/01/27 12:03:58;;;;;;;5.05;3.20;;;3.70;1.00;;;;;;5026191;28;20284;-84
2023/01/27 12:06:35;;;;;;;3.47;3.17;;;3.70;1.00;;;;;;5026474;28;20192;-82
2023/01/27 12:09:02;;;;;;;5.55;3.67;;;;;;;;;;5025885;28;20221;-84
2023/01/27 12:11:31;;;;;;;4.07;3.70;;;3.70;1.00;;;;;;5026482;28;20205;-84
2023/01/27 12:13:59;;;;;;;3.60;3.33;;;2.60;1.00;;;;;;5027239;28;20232;-85
2023/01/27 12:16:43;;;;;;;4.82;4.10;;;4.00;1.00;;;;;;5027087;28;20211;-83
2023/01/27 12:19:23;;;;;;;4.90;4.15;;;4.10;1.00;;;;;;5032326;28;20232;-83
2023/01/27 12:21:54;;;;;;;6.03;4.30;;;4.20;1.00;;;;;;5038006;28;20227;-82
2023/01/27 12:24:28;;;;;;;8.20;4.85;;;3.60;1.00;;;;;;5038926;28;20212;-83
2023/01/27 12:26:56;;;;;;;6.38;4.00;;;3.60;1.00;;;;;;5033395;28;20199;-83
2023/01/27 12:29:28;;;;;;;7.68;4.50;;;4.20;1.00;;;;;;5030711;28;20208;-84
2023/01/27 12:31:58;;;;;;;3.67;3.47;;;4.00;1.00;;;;;;5027632;28;20193;-84
2023/01/27 12:34:33;;;;;;;4.20;3.65;;;4.00;1.00;;;;;;5026381;28;20195;-83
2023/01/27 12:37:04;;;;;;;4.00;3.60;;;3.60;1.00;;;;;;5025527;28;20188;-83
2023/01/27 12:39:40;;;;;;;4.10;3.80;;;4.20;1.00;;;;;;5025706;28;20276;-83
2023/01/27 12:42:36;;;;;;;4.32;3.92;;;3.90;1.00;;;;;;5028570;28;20205;-84
2023/01/27 12:45:19;;;;;;;6.03;3.45;;;3.80;1.00;;;;;;5027245;28;20675;-83
2023/01/27 12:47:56;;;;;;;6.70;3.60;;;3.80;1.00;;;;;;5031704;28;20231;-83
2023/01/27 12:50:25;;;;;;;4.10;3.35;;;3.80;1.00;;;;;;5030731;28;20205;-83
2023/01/27 12:52:54;;;;;;;8.50;4.82;;;4.00;1.00;;;;;;5028459;28;20201;-83
2023/01/27 12:55:29;;;;;;;6.07;5.03;;;4.10;1.00;;;;;;5028042;28;20204;-84
2023/01/27 12:57:57;;;;;;;9.15;4.22;;;4.10;1.00;;;;;;5028058;28;20262;-83
2023/01/27 13:00:25;;;;;;;6.43;4.40;;;4.00;1.00;;;;;;5026489;28;20207;-84
2023/01/27 13:02:53;;;;;;;5.75;5.20;;;3.80;1.00;;;;;;5027054;28;20204;-83
2023/01/27 13:05:20;;;;;;;11.68;6.25;;;;;;;;;;5025337;28;20248;-84
2023/01/27 13:07:51;;;;;;;9.48;6.55;;;3.80;1.00;;;;;;5029445;28;20304;-84
2023/01/27 13:10:21;;;;;;;7.68;4.70;;;3.60;1.00;;;;;;5031041;28;20220;-82
2023/01/27 13:12:50;;;;;;;7.18;5.82;;;3.80;1.00;;;;;;5029848;28;20205;-84
2023/01/27 13:15:20;;;;;;;7.32;5.57;;;3.80;1.00;;;;;;5024978;28;20215;-84
2023/01/27 13:17:49;;;;;;;11.82;6.45;;;4.10;1.00;;;;;;5028158;28;20236;-84
2023/01/27 13:20:21;;;;;;;11.18;6.10;;;3.50;1.00;;;;;;5028574;28;20228;-83
2023/01/27 13:22:51;;;;;;;5.57;4.75;;;3.80;1.00;;;;;;5033952;28;20220;-81
2023/01/27 13:25:22;;;;;;;6.75;4.60;;;3.60;1.00;;;;;;5033230;28;20220;-83
2023/01/27 13:27:53;;;;;;;8.13;4.68;;;2.60;1.00;;;;;;5034685;28;20236;-83
2023/01/27 13:30:28;;;;;;;8.40;5.13;;;3.80;1.00;;;;;;5033972;28;20252;-84
2023/01/27 13:33:03;;;;;;;6.20;4.40;;;2.70;1.00;;;;;;5033593;28;20215;-84
2023/01/27 13:35:35;;;;;;;8.07;5.20;;;3.50;1.00;;;;;;5032201;28;20191;-84
2023/01/27 13:38:08;;;;;;;7.70;5.18;;;3.20;1.00;;;;;;5029952;28;20287;-83
2023/01/27 13:40:42;;;;;;;7.25;5.05;;;3.50;1.00;;;;;;5027671;28;20556;-83
2023/01/27 13:43:13;;;;;;;7.30;5.07;;;3.40;1.00;;;;;;5027128;28;20230;-85
2023/01/27 13:45:45;;;;;;;8.07;4.90;;;3.40;1.00;;;;;;5026172;28;20212;-84
2023/01/27 13:48:20;;;;;;;6.40;4.40;;;3.40;1.00;;;;;;5025697;28;20592;-83
2023/01/27 13:50:50;;;;;;;9.27;4.60;;;3.40;1.00;;;;;;5024386;28;20256;-84
2023/01/27 13:53:19;;;;;;;13.70;6.43;;;3.70;1.00;;;;;;5024160;28;20335;-83
2023/01/27 13:56:11;;;;;;;7.00;5.40;;;3.60;1.00;;;;;;5023091;28;20201;-83